Time;durP1;ratioP1;P1;durP2;ratioP2;P2;SDS_P1;SDS_P2;PMS_P1;PMS_P2;Temp;Humidity;BMP_temperature;BMP_pressure;BME280_temperature;BME280_humidity;BME280_pressure;Samples;Min_cycle;Max_cycle;Signal;HPM_P1;HPM_P2
2022/12/14 00:01:11;;;;;;;;;;;;;;;28.48;23.63;100824.41;5018736;28;1116;-28
2022/12/14 00:03:36;;;;;;;;;;;;;;;28.20;24.36;100824.22;5018804;28;1133;-26
2022/12/14 00:06:14;;;;;;;;;;;;;;;28.35;23.96;100835.06;5016784;28;1172;-27
2022/12/14 00:08:39;;;;;;;;;;;;;;;27.89;24.73;100853.19;5013351;28;1175;-26
2022/12/14 00:11:04;;;;;;;;;;;;;;;27.49;25.34;100867.69;5018171;28;1117;-27
2022/12/14 00:13:30;;;;;;;;;;;;;;;26.91;26.09;100868.13;5018353;28;1968;-27
2022/12/14 00:15:55;;;;;;;;;;;;;;;27.30;25.61;100870.91;5025980;28;1152;-27
2022/12/14 00:18:20;;;;;;;;;;;;;;;27.71;25.13;100867.03;5014550;28;1239;-28
2022/12/14 00:20:45;;;;;;;;;;;;;;;27.95;24.44;100873.19;5012668;28;1223;-26
2022/12/14 00:23:11;;;;;;;;;;;;;;;28.14;24.34;100873.69;4998668;28;1121;-25
2022/12/14 00:25:36;;;;;;;;;;;;;;;27.16;25.93;100873.38;4997515;28;1196;-25
2022/12/14 00:28:01;;;;;;;;;;;;;;;27.32;25.85;100883.22;5005147;28;1133;-29
2022/12/14 00:30:27;;;;;;;;;;;;;;;27.82;25.10;100898.19;5009586;28;1148;-29
2022/12/14 00:32:52;;;;;;;;;;;;;;;28.30;24.13;100895.13;5017841;28;1116;-28
2022/12/14 00:35:17;;;;;;;;;;;;;;;28.07;23.89;100881.69;5018012;28;1996;-30
2022/12/14 00:37:43;;;;;;;;;;;;;;;27.07;25.61;100869.91;5018089;28;1155;-27
2022/12/14 00:40:08;;;;;;;;;;;;;;;27.19;25.89;100864.94;5018138;28;1120;-26
2022/12/14 00:42:33;;;;;;;;;;;;;;;27.66;25.37;100872.94;5013981;28;1352;-27
2022/12/14 00:44:59;;;;;;;;;;;;;;;28.12;24.53;100879.28;5017759;28;1175;-29
2022/12/14 00:47:24;;;;;;;;;;;;;;;27.99;24.12;100888.03;5017807;28;1148;-27
2022/12/14 00:49:49;;;;;;;;;;;;;;;27.29;25.26;100883.59;5017697;28;1203;-28
2022/12/14 00:52:14;;;;;;;;;;;;;;;27.16;25.74;100884.16;5017457;28;1182;-28
2022/12/14 00:54:40;;;;;;;;;;;;;;;27.62;25.40;100886.00;5013869;28;1963;-26
2022/12/14 00:57:06;;;;;;;;;;;;;;;28.20;24.15;100895.41;5014923;28;1124;-26
2022/12/14 00:59:31;;;;;;;;;;;;;;;28.13;24.11;100902.56;5018183;28;1129;-26
2022/12/14 01:01:56;;;;;;;;;;;;;;;27.21;25.74;100902.56;5017680;28;1148;-25
2022/12/14 01:04:23;;;;;;;;;;;;;;;27.17;25.57;100901.22;5017489;28;1200;-28
2022/12/14 01:06:49;;;;;;;;;;;;;;;27.52;25.42;100909.75;5013643;28;1243;-29
2022/12/14 01:09:15;;;;;;;;;;;;;;;27.96;24.77;100916.28;5017442;28;1108;-27
2022/12/14 01:11:40;;;;;;;;;;;;;;;28.05;24.29;100903.50;5017165;28;1184;-26
2022/12/14 01:14:05;;;;;;;;;;;;;;;27.35;25.24;100915.28;5017312;28;1902;-29
2022/12/14 01:16:31;;;;;;;;;;;;;;;27.13;25.98;100925.88;5016843;28;1538;-26
2022/12/14 01:18:56;;;;;;;;;;;;;;;27.45;25.33;100917.72;5013918;28;1223;-29
2022/12/14 01:21:22;;;;;;;;;;;;;;;27.84;24.86;100925.88;5016152;28;1172;-27
2022/12/14 01:23:49;;;;;;;;;;;;;;;27.87;24.73;100922.78;5017050;28;1191;-26
2022/12/14 01:26:15;;;;;;;;;;;;;;;27.41;25.38;100915.56;5017569;28;1144;-30
2022/12/14 01:28:40;;;;;;;;;;;;;;;27.02;26.43;100921.75;5017175;28;1147;-27
2022/12/14 01:31:09;;;;;;;;;;;;;;;27.29;25.63;100925.97;5016942;28;1164;-27
2022/12/14 01:33:34;;;;;;;;;;;;;;;27.65;25.26;100924.47;5016832;28;1906;-27
2022/12/14 01:36:03;;;;;;;;;;;;;;;27.89;24.79;100923.47;5016943;28;1152;-29
2022/12/14 01:38:28;;;;;;;;;;;;;;;27.92;24.76;100922.25;5017211;28;1152;-27
2022/12/14 01:40:57;;;;;;;;;;;;;;;27.14;26.10;100910.53;5016701;28;1196;-27
2022/12/14 01:43:22;;;;;;;;;;;;;;;27.22;26.21;100913.19;5016569;28;886;-28
2022/12/14 01:45:47;;;;;;;;;;;;;;;27.49;25.59;100919.03;5016700;28;1187;-30
2022/12/14 01:48:13;;;;;;;;;;;;;;;27.90;24.76;100917.03;5016836;28;1223;-29
2022/12/14 01:50:38;;;;;;;;;;;;;;;27.94;24.83;100912.94;5017245;28;1144;-29
2022/12/14 01:53:05;;;;;;;;;;;;;;;27.32;25.80;100914.78;5015450;28;1188;-28
2022/12/14 01:55:35;;;;;;;;;;;;;;;27.06;26.38;100913.28;5015116;28;1969;-28
2022/12/14 01:58:29;;;;;;;;;;;;;;;27.37;25.87;100915.94;5015384;28;1152;-27
2022/12/14 02:00:55;;;;;;;;;;;;;;;27.83;25.09;100903.41;5012154;28;1269;-27
2022/12/14 02:03:21;;;;;;;;;;;;;;;27.75;25.07;100898.06;5015529;28;1129;-27
2022/12/14 02:05:51;;;;;;;;;;;;;;;27.48;25.81;100898.44;5015243;28;1474;-27
2022/12/14 02:08:16;;;;;;;;;;;;;;;27.02;26.58;100894.75;5015144;28;975;-27
2022/12/14 02:10:42;;;;;;;;;;;;;;;27.24;26.19;100900.31;5016659;28;1121;-27
2022/12/14 02:13:15;;;;;;;;;;;;;;;27.68;25.45;100906.06;5015265;28;1251;-26
2022/12/14 02:15:41;;;;;;;;;;;;;;;27.95;25.07;100901.09;5016157;28;1910;-27
2022/12/14 02:18:07;;;;;;;;;;;;;;;27.68;25.38;100897.09;5016285;28;1160;-31
2022/12/14 02:20:38;;;;;;;;;;;;;;;27.06;26.20;100894.38;5003029;28;1167;-29
2022/12/14 02:23:16;;;;;;;;;;;;;;;27.35;25.98;100884.72;5015375;28;1183;-27
2022/12/14 02:25:50;;;;;;;;;;;;;;;27.72;25.50;100890.34;5016194;28;1191;-26
2022/12/14 02:28:32;;;;;;;;;;;;;;;27.57;25.37;100887.56;5016774;28;1109;-27
2022/12/14 02:31:03;;;;;;;;;;;;;;;27.26;26.04;100889.31;5015299;28;1152;-29
2022/12/14 02:33:32;;;;;;;;;;;;;;;26.98;26.79;100882.59;5004270;28;1185;-27
2022/12/14 02:35:57;;;;;;;;;;;;;;;27.22;26.44;100877.22;5014978;28;1953;-29
2022/12/14 02:38:32;;;;;;;;;;;;;;;27.55;25.89;100881.50;5016216;28;1109;-27
2022/12/14 02:41:03;;;;;;;;;;;;;;;28.05;24.97;100892.69;5016462;28;1223;-27
2022/12/14 02:43:34;;;;;;;;;;;;;;;27.98;24.71;100892.59;5012940;28;1136;-27
2022/12/14 02:46:03;;;;;;;;;;;;;;;27.05;26.50;100885.44;5008815;28;1137;-26
2022/12/14 02:48:33;;;;;;;;;;;;;;;27.20;26.62;100885.50;5003565;28;1088;-27
2022/12/14 02:51:07;;;;;;;;;;;;;;;27.46;26.24;100891.56;5019033;28;1124;-27
2022/12/14 02:53:38;;;;;;;;;;;;;;;27.71;25.24;100888.66;5018586;28;1148;-27
2022/12/14 02:56:07;;;;;;;;;;;;;;;27.80;25.11;100887.56;5011918;28;1212;-26
2022/12/14 02:58:37;;;;;;;;;;;;;;;27.04;26.51;100889.19;5015997;28;1140;-28
2022/12/14 03:01:02;;;;;;;;;;;;;;;27.08;26.80;100895.03;5019862;28;1211;-28
2022/12/14 03:03:27;;;;;;;;;;;;;;;27.34;26.49;100897.38;5019559;28;1222;-26
2022/12/14 03:06:03;;;;;;;;;;;;;;;27.59;26.11;100909.84;5019846;28;1109;-27
2022/12/14 03:08:29;;;;;;;;;;;;;;;27.97;25.31;100919.81;5009629;28;1148;-29
2022/12/14 03:10:59;;;;;;;;;;;;;;;27.63;25.59;100913.84;5017495;28;1192;-29
2022/12/14 03:13:38;;;;;;;;;;;;;;;27.06;26.51;100922.22;5018757;28;1157;-26
2022/12/14 03:16:09;;;;;;;;;;;;;;;27.28;26.51;100919.72;5018982;28;1251;-27
2022/12/14 03:18:35;;;;;;;;;;;;;;;27.55;25.93;100925.59;5019600;28;1195;-26
2022/12/14 03:21:01;;;;;;;;;;;;;;;27.92;25.22;100919.53;5017741;28;1156;-26
2022/12/14 03:23:28;;;;;;;;;;;;;;;27.80;25.63;100911.88;5018237;28;1136;-28
2022/12/14 03:26:20;;;;;;;;;;;;;;;27.09;26.33;100916.44;5019420;28;1161;-30
2022/12/14 03:29:05;;;;;;;;;;;;;;;27.10;26.56;100920.00;5017979;28;1296;-28
2022/12/14 03:31:32;;;;;;;;;;;;;;;27.54;26.08;100925.75;5017822;28;1226;-26
2022/12/14 03:33:57;;;;;;;;;;;;;;;27.79;25.35;100912.91;5011703;28;1914;-29
2022/12/14 03:36:29;;;;;;;;;;;;;;;27.70;25.90;100916.69;5017812;28;1215;-26
2022/12/14 03:38:55;;;;;;;;;;;;;;;27.25;26.61;100911.97;5018800;28;1132;-27
2022/12/14 03:41:33;;;;;;;;;;;;;;;26.93;27.05;100916.53;5018903;28;1156;-28
2022/12/14 03:44:02;;;;;;;;;;;;;;;27.32;26.58;100904.84;5017743;28;1132;-29
2022/12/14 03:46:34;;;;;;;;;;;;;;;27.70;26.08;100900.47;5017456;28;1085;-26
2022/12/14 03:49:07;;;;;;;;;;;;;;;28.02;25.07;100898.47;5005896;28;1125;-26
2022/12/14 03:51:34;;;;;;;;;;;;;;;27.95;25.29;100902.94;5018757;28;1152;-27
2022/12/14 03:54:02;;;;;;;;;;;;;;;27.15;26.75;100898.72;5018601;28;1894;-27
2022/12/14 03:56:32;;;;;;;;;;;;;;;27.27;26.48;100907.22;5017765;28;1167;-27
2022/12/14 03:59:00;;;;;;;;;;;;;;;27.63;25.82;100905.75;5017210;28;1207;-27
2022/12/14 04:01:35;;;;;;;;;;;;;;;27.97;25.52;100895.50;5018952;28;1132;-32
2022/12/14 04:04:27;;;;;;;;;;;;;;;27.97;25.27;100895.50;5017671;28;1151;-26
2022/12/14 04:06:54;;;;;;;;;;;;;;;27.00;26.86;100895.91;5017521;28;1214;-27
2022/12/14 04:09:28;;;;;;;;;;;;;;;27.30;26.48;100900.63;5016793;28;839;-26
2022/12/14 04:20:23;;;;;;;;;;;;;;;26.90;27.26;100898.84;5013083;28;1124;-30
2022/12/14 04:23:00;;;;;;;;;;;;;;;27.28;26.61;100902.69;5016436;28;1191;-26
2022/12/14 04:29:54;;;;;;;;;;;;;;;27.90;25.56;100921.56;5017061;28;1057;-26
2022/12/14 04:30:58;;;;;;;;;;;;;;;27.34;26.30;100908.16;5014111;28;1237;-25
2022/12/14 04:36:07;;;;;;;;;;;;;;;27.34;26.75;100908.16;5008011;28;1049;-27
2022/12/14 04:38:33;;;;;;;;;;;;;;;27.53;26.12;100906.00;5016148;28;1152;-26
2022/12/14 04:41:01;;;;;;;;;;;;;;;27.88;24.93;100897.44;5016041;28;1219;-27
2022/12/14 04:43:28;;;;;;;;;;;;;;;27.81;23.23;100893.81;5015905;28;1074;-25
2022/12/14 04:45:54;;;;;;;;;;;;;;;27.65;24.99;100892.91;5005754;28;1210;-26
2022/12/14 04:48:39;;;;;;;;;;;;;;;27.61;22.62;100892.41;5015517;28;1424;-29
2022/12/14 04:51:08;;;;;;;;;;;;;;;27.24;18.95;100894.09;5014681;28;1206;-28
2022/12/14 04:53:33;;;;;;;;;;;;;;;26.69;23.77;100894.06;5004663;28;1029;-27
2022/12/14 04:56:05;;;;;;;;;;;;;;;26.75;22.93;100896.06;5015489;28;1902;-29
2022/12/14 04:58:30;;;;;;;;;;;;;;;26.97;21.88;100904.38;5015492;28;1169;-31
2022/12/14 05:00:59;;;;;;;;;;;;;;;27.16;20.62;100900.38;5015683;28;1207;-29
2022/12/14 05:03:26;;;;;;;;;;;;;;;27.12;20.33;100885.56;5015400;28;1003;-25
2022/12/14 05:05:54;;;;;;;;;;;;;;;27.09;20.10;100877.84;5015837;28;1171;-25
2022/12/14 05:08:38;;;;;;;;;;;;;;;27.84;18.84;100893.44;5013762;28;2143;-26
2022/12/14 05:11:08;;;;;;;;;;;;;;;27.72;19.03;100891.19;5011913;28;1806;-28
2022/12/14 05:13:35;;;;;;;;;;;;;;;27.56;20.35;100878.63;5004227;28;2001;-26
2022/12/14 05:16:00;;;;;;;;;;;;;;;28.34;19.84;100882.91;5010088;28;2277;-28
2022/12/14 05:18:26;;;;;;;;;;;;;;;28.66;19.75;100881.84;5015427;28;2148;-29
2022/12/14 05:20:51;;;;;;;;;;;;;;;28.71;20.09;100882.94;5012046;28;2061;-28
2022/12/14 05:23:16;;;;;;;;;;;;;;;28.99;20.03;100880.56;5016390;28;1935;-26
2022/12/14 05:25:42;;;;;;;;;;;;;;;28.98;20.22;100876.19;5016600;28;2139;-29
2022/12/14 05:28:08;;;;;;;;;;;;;;;29.06;20.46;100879.59;5016788;28;1120;-28
2022/12/14 05:30:34;;;;;;;;;;;;;;;29.24;20.54;100882.88;5016347;28;1195;-28
2022/12/14 05:32:59;;;;;;;;;;;;;;;29.22;20.88;100888.50;5006180;28;1104;-29
2022/12/14 05:35:25;;;;;;;;;;;;;;;29.37;20.70;100903.84;4996204;28;1910;-26
2022/12/14 05:37:50;;;;;;;;;;;;;;;29.35;21.01;100898.63;4996735;28;1291;-26
2022/12/14 05:40:15;;;;;;;;;;;;;;;29.50;20.94;100894.97;5005800;28;1168;-27
2022/12/14 05:42:41;;;;;;;;;;;;;;;29.83;20.81;100897.13;5016392;28;1072;-26
2022/12/14 05:45:06;;;;;;;;;;;;;;;29.84;20.92;100895.25;5013933;28;1223;-27
2022/12/14 05:47:32;;;;;;;;;;;;;;;29.92;20.73;100893.25;5005278;28;1116;-26
2022/12/14 05:49:57;;;;;;;;;;;;;;;29.77;20.96;100892.50;5016489;28;1124;-27
2022/12/14 05:52:25;;;;;;;;;;;;;;;29.45;21.38;100896.41;5016543;28;1100;-28
2022/12/14 05:54:51;;;;;;;;;;;;;;;29.28;21.53;100895.03;5005026;28;1920;-25
2022/12/14 05:57:16;;;;;;;;;;;;;;;29.36;21.52;100908.44;5014446;28;1145;-26
2022/12/14 05:59:41;;;;;;;;;;;;;;;29.48;21.66;100902.50;5016446;28;1132;-26
2022/12/14 06:02:07;;;;;;;;;;;;;;;29.53;21.58;100897.31;5014947;28;1208;-27
2022/12/14 06:04:32;;;;;;;;;;;;;;;29.74;21.32;100910.03;5015678;28;1253;-27
2022/12/14 06:06:57;;;;;;;;;;;;;;;29.88;21.42;100904.69;5015913;28;1227;-26
2022/12/14 06:09:23;;;;;;;;;;;;;;;29.70;21.31;100912.28;5015548;28;1220;-26
2022/12/14 06:11:48;;;;;;;;;;;;;;;29.81;21.28;100923.63;5015494;28;1252;-27
2022/12/14 06:14:14;;;;;;;;;;;;;;;29.34;22.14;100918.63;5015673;28;1948;-30
2022/12/14 06:16:40;;;;;;;;;;;;;;;29.45;22.13;100926.22;5014526;28;1255;-27
2022/12/14 06:19:05;;;;;;;;;;;;;;;29.50;22.09;100916.66;5015779;28;1279;-26
2022/12/14 06:21:32;;;;;;;;;;;;;;;29.61;22.03;100918.03;5015162;28;1180;-26
2022/12/14 06:23:57;;;;;;;;;;;;;;;29.66;22.00;100918.31;5014591;28;2274;-28
2022/12/14 06:26:23;;;;;;;;;;;;;;;29.73;22.12;100921.06;5000175;28;1335;-26
2022/12/14 06:28:48;;;;;;;;;;;;;;;30.15;21.62;100916.53;4999700;28;1291;-27
2022/12/14 06:31:15;;;;;;;;;;;;;;;30.13;21.52;100917.78;5017258;28;1085;-27
2022/12/14 06:33:40;;;;;;;;;;;;;;;30.38;21.13;100914.59;5019136;28;1231;-30
2022/12/14 06:36:05;;;;;;;;;;;;;;;30.24;21.44;100924.53;5019748;28;1968;-27
2022/12/14 06:38:31;;;;;;;;;;;;;;;30.33;21.51;100927.94;5019777;28;1266;-26
2022/12/14 06:40:56;;;;;;;;;;;;;;;30.19;21.19;100923.25;5019386;28;1299;-26
2022/12/14 06:43:23;;;;;;;;;;;;;;;29.80;21.58;100928.19;5019300;28;1303;-26
2022/12/14 06:45:48;;;;;;;;;;;;;;;29.72;22.23;100932.94;5019338;28;1259;-27
2022/12/14 06:48:14;;;;;;;;;;;;;;;29.82;21.92;100936.13;5019265;28;1330;-25
2022/12/14 06:50:39;;;;;;;;;;;;;;;30.03;21.86;100939.84;5001654;28;1259;-26
2022/12/14 06:53:04;;;;;;;;;;;;;;;30.01;21.97;100936.47;4999282;28;1283;-30
2022/12/14 06:55:30;;;;;;;;;;;;;;;30.13;21.79;100936.78;5002459;28;1910;-26
2022/12/14 06:57:55;;;;;;;;;;;;;;;30.27;21.70;100935.84;5018865;28;1227;-26
2022/12/14 07:00:21;;;;;;;;;;;;;;;30.17;21.11;100938.88;5019198;28;1220;-29
2022/12/14 07:02:46;;;;;;;;;;;;;;;30.06;21.23;100929.41;5000674;28;1236;-26
2022/12/14 07:05:12;;;;;;;;;;;;;;;29.76;22.11;100929.63;5004716;28;1251;-26
2022/12/14 07:07:37;;;;;;;;;;;;;;;29.75;22.15;100938.81;5010894;28;1326;-26
2022/12/14 07:10:03;;;;;;;;;;;;;;;29.34;22.89;100935.69;4999228;28;1250;-26
2022/12/14 07:12:28;;;;;;;;;;;;;;;29.31;22.79;100929.84;4999352;28;1303;-27
2022/12/14 07:14:53;;;;;;;;;;;;;;;29.33;22.89;100925.91;4999494;28;1956;-27
2022/12/14 07:17:19;;;;;;;;;;;;;;;29.38;22.98;100917.19;4998629;28;1358;-27
2022/12/14 07:19:45;;;;;;;;;;;;;;;29.57;22.67;100920.28;5004948;28;1219;-27
2022/12/14 07:22:10;;;;;;;;;;;;;;;29.65;22.64;100924.75;5017529;28;1172;-27
2022/12/14 07:24:36;;;;;;;;;;;;;;;29.75;22.68;100916.25;5012490;28;2435;-28
2022/12/14 07:27:01;;;;;;;;;;;;;;;29.84;22.64;100923.22;5017928;28;1152;-28
2022/12/14 07:29:26;;;;;;;;;;;;;;;29.91;22.61;100920.56;5017782;28;1223;-26
2022/12/14 07:31:52;;;;;;;;;;;;;;;29.85;22.64;100916.75;5017863;28;1021;-25
2022/12/14 07:34:18;;;;;;;;;;;;;;;30.02;22.42;100913.75;5017141;28;1906;-26
2022/12/14 07:36:43;;;;;;;;;;;;;;;30.01;22.45;100926.44;5017542;28;1144;-25
2022/12/14 07:39:14;;;;;;;;;;;;;;;30.05;22.47;100921.47;5017396;28;1120;-27
2022/12/14 07:41:39;;;;;;;;;;;;;;;30.15;22.28;100924.69;5017675;28;1093;-27
2022/12/14 07:44:05;;;;;;;;;;;;;;;30.16;22.24;100933.66;5017460;28;1132;-27
2022/12/14 07:46:30;;;;;;;;;;;;;;;30.29;22.04;100943.78;5016857;28;1168;-25
2022/12/14 07:48:56;;;;;;;;;;;;;;;30.21;22.16;100939.38;5017521;28;1167;-26
2022/12/14 07:51:22;;;;;;;;;;;;;;;30.37;22.23;100940.91;5017555;28;1199;-27
2022/12/14 07:53:48;;;;;;;;;;;;;;;30.30;22.10;100924.59;5017070;28;2582;-28
2022/12/14 07:56:14;;;;;;;;;;;;;;;30.45;22.04;100930.94;5017688;28;1128;-25
2022/12/14 07:58:39;;;;;;;;;;;;;;;30.47;22.43;100940.53;5014365;28;1112;-24
2022/12/14 08:01:09;;;;;;;;;;;;;;;30.06;22.84;100940.25;5017363;28;1112;-26
2022/12/14 08:03:34;;;;;;;;;;;;;;;30.18;22.29;100937.84;5017738;28;1200;-26
2022/12/14 08:06:02;;;;;;;;;;;;;;;30.12;22.67;100935.09;5017270;28;1155;-27
2022/12/14 08:08:28;;;;;;;;;;;;;;;29.68;25.09;100930.63;5017202;28;1226;-27
2022/12/14 08:10:53;;;;;;;;;;;;;;;29.25;24.74;100930.59;5016936;28;943;-30
2022/12/14 08:13:18;;;;;;;;;;;;;;;29.25;24.63;100930.59;5017445;28;1176;-27
2022/12/14 08:15:43;;;;;;;;;;;;;;;29.11;24.79;100922.38;5017091;28;1898;-27
2022/12/14 08:18:09;;;;;;;;;;;;;;;29.07;24.46;100912.94;4974605;28;1211648;-22
2022/12/14 08:20:35;;;;;;;;;;;;;;;29.32;24.27;100904.41;5017667;28;1171;-22
2022/12/14 08:23:00;;;;;;;;;;;;;;;29.43;24.27;100905.75;5017129;28;1326;-25
2022/12/14 08:25:25;;;;;;;;;;;;;;;29.88;23.50;100912.84;5006470;28;2553;-23
2022/12/14 08:27:51;;;;;;;;;;;;;;;30.10;23.34;100918.16;5014384;28;1206;-26
2022/12/14 08:30:16;;;;;;;;;;;;;;;30.26;23.06;100920.56;5017911;28;1183;-26
2022/12/14 08:32:41;;;;;;;;;;;;;;;30.38;22.80;100912.72;5017589;28;1092;-24
2022/12/14 08:35:07;;;;;;;;;;;;;;;30.62;22.47;100907.81;5010668;28;1910;-24
2022/12/14 08:37:32;;;;;;;;;;;;;;;30.80;22.35;100909.13;4997992;28;1121;-25
2022/12/14 08:39:57;;;;;;;;;;;;;;;30.74;21.83;100904.50;5016369;28;1172;-24
2022/12/14 08:42:22;;;;;;;;;;;;;;;30.27;22.92;100922.28;5017165;28;1144;-30
2022/12/14 08:44:48;;;;;;;;;;;;;;;30.36;22.69;100914.81;5016863;28;1104;-32
2022/12/14 08:47:13;;;;;;;;;;;;;;;30.26;22.89;100914.34;5002557;28;1208;-35
2022/12/14 08:49:38;;;;;;;;;;;;;;;30.24;22.95;100902.84;5017388;28;1128;-31
2022/12/14 08:52:04;;;;;;;;;;;;;;;30.27;22.99;100908.72;5017173;28;1183;-36
2022/12/14 08:54:29;;;;;;;;;;;;;;;30.26;22.90;100909.72;5016627;28;1906;-34
2022/12/14 08:56:54;;;;;;;;;;;;;;;30.34;22.87;100916.03;5016764;28;1115;-29
2022/12/14 08:59:19;;;;;;;;;;;;;;;30.64;22.11;100913.03;5015209;28;1244;-30
2022/12/14 09:01:45;;;;;;;;;;;;;;;30.16;22.90;100920.91;5016439;28;1295;-35
2022/12/14 09:04:10;;;;;;;;;;;;;;;30.30;22.92;100919.16;5016506;28;1284;-34
2022/12/14 09:06:36;;;;;;;;;;;;;;;30.25;22.99;100913.50;5016989;28;1148;-35
2022/12/14 09:09:02;;;;;;;;;;;;;;;30.26;23.13;100906.19;5016826;28;1136;-33
2022/12/14 09:11:28;;;;;;;;;;;;;;;30.26;22.96;100911.63;5015170;28;1197;-33
2022/12/14 09:13:53;;;;;;;;;;;;;;;30.29;22.94;100916.66;5016862;28;2011;-33
2022/12/14 09:16:19;;;;;;;;;;;;;;;30.33;22.77;100917.91;5016858;28;1163;-36
2022/12/14 09:18:44;;;;;;;;;;;;;;;30.05;22.84;100918.75;5016773;28;1195;-32
2022/12/14 09:21:10;;;;;;;;;;;;;;;30.03;23.22;100918.16;5016230;28;1061;-33
2022/12/14 09:23:35;;;;;;;;;;;;;;;30.79;22.36;100908.28;5015501;28;2393;-37
2022/12/14 09:26:00;;;;;;;;;;;;;;;30.26;22.68;100914.34;5010856;28;1149;-30
2022/12/14 09:28:26;;;;;;;;;;;;;;;29.89;23.30;100907.22;5016356;28;1156;-32
2022/12/14 09:30:58;;;;;;;;;;;;;;;29.88;23.11;100894.66;5016788;28;1104;-35
2022/12/14 09:33:23;;;;;;;;;;;;;;;29.85;23.13;100897.78;5003384;28;1098;-30
2022/12/14 09:35:49;;;;;;;;;;;;;;;29.78;23.40;100899.63;5015998;28;1979;-35
2022/12/14 09:38:14;;;;;;;;;;;;;;;29.77;23.50;100884.38;5009128;28;1194;-36
2022/12/14 09:40:41;;;;;;;;;;;;;;;29.89;23.53;100892.81;5014054;28;846;-33
2022/12/14 09:43:08;;;;;;;;;;;;;;;30.00;23.22;100884.09;5015337;28;1124;-35
2022/12/14 09:45:34;;;;;;;;;;;;;;;30.20;23.02;100891.53;5012988;28;1037;-38
2022/12/14 09:48:19;;;;;;;;;;;;;;;30.60;22.47;100879.16;5021519;28;1043;-35
2022/12/14 09:50:48;;;;;;;;;;;;;;;30.70;22.05;100876.09;5022489;28;969;-36
2022/12/14 09:53:13;;;;;;;;;;;;;;;30.39;22.65;100867.41;5008725;28;1073;-36
2022/12/14 09:55:46;;;;;;;;;;;;;;;30.36;22.70;100867.81;5012634;28;2438;-35
2022/12/14 09:58:29;;;;;;;;;;;;;;;30.42;22.61;100854.28;5012365;28;1081;-35
2022/12/14 10:01:13;;;;;;;;;;;;;;;30.43;22.62;100849.69;5012901;28;931;-32
2022/12/14 10:03:39;;;;;;;;;;;;;;;30.46;22.58;100853.88;5008031;28;898;-33
2022/12/14 10:06:05;;;;;;;;;;;;;;;30.45;22.67;100842.19;5014708;28;1081;-32
2022/12/14 10:08:30;;;;;;;;;;;;;;;30.48;22.27;100844.47;5014166;28;1085;-37
2022/12/14 10:11:14;;;;;;;;;;;;;;;30.73;22.06;100843.09;5013889;28;1207;-35
2022/12/14 10:13:42;;;;;;;;;;;;;;;30.18;22.84;100852.88;5014691;28;1224;-37
2022/12/14 10:16:19;;;;;;;;;;;;;;;30.27;22.75;100857.16;5013920;28;1902;-37
2022/12/14 10:18:49;;;;;;;;;;;;;;;30.47;22.57;100855.53;5014278;28;1140;-33
2022/12/14 10:21:15;;;;;;;;;;;;;;;30.57;22.31;100857.88;5013491;28;1121;-35
2022/12/14 10:23:41;;;;;;;;;;;;;;;30.35;22.77;100850.69;5012546;28;2353;-33
2022/12/14 10:26:07;;;;;;;;;;;;;;;30.41;22.92;100851.78;4999158;28;1302;-38
2022/12/14 10:28:44;;;;;;;;;;;;;;;30.51;22.56;100859.53;5013016;28;1209;-35
2022/12/14 10:31:11;;;;;;;;;;;;;;;30.14;23.01;100859.75;5012597;28;1252;-39
2022/12/14 10:33:37;;;;;;;;;;;;;;;30.41;22.84;100857.22;5014593;28;1228;-34
2022/12/14 10:36:03;;;;;;;;;;;;;;;30.55;22.54;100863.50;5010162;28;1898;-36
2022/12/14 10:38:35;;;;;;;;;;;;;;;30.40;22.80;100852.81;5014420;28;1204;-34
2022/12/14 10:41:21;;;;;;;;;;;;;;;30.31;23.03;100842.13;5013011;28;1219;-39
2022/12/14 10:43:53;;;;;;;;;;;;;;;30.25;22.81;100836.66;5008651;28;1343;-32
2022/12/14 10:46:24;;;;;;;;;;;;;;;30.39;22.62;100826.72;5013989;28;1151;-39
2022/12/14 10:48:57;;;;;;;;;;;;;;;30.06;23.26;100815.47;4998757;28;1223;-36
2022/12/14 10:51:30;;;;;;;;;;;;;;;30.41;22.55;100811.06;5013451;28;1101;-38
2022/12/14 10:53:58;;;;;;;;;;;;;;;30.26;22.55;100808.50;5013015;28;1962;-34
2022/12/14 10:56:24;;;;;;;;;;;;;;;30.30;22.41;100807.06;5014489;28;1104;-38
2022/12/14 10:59:08;;;;;;;;;;;;;;;30.43;22.01;100814.38;5013419;28;1121;-33
2022/12/14 11:01:34;;;;;;;;;;;;;;;30.36;22.20;100817.13;5014595;28;1068;-37
2022/12/14 11:03:59;;;;;;;;;;;;;;;30.30;21.29;100816.03;5014220;28;1298;-36
2022/12/14 11:06:24;;;;;;;;;;;;;;;30.13;22.06;100817.41;5014458;28;1101;-33
2022/12/14 11:08:50;;;;;;;;;;;;;;;30.47;21.78;100815.66;5016362;28;1274;-35
2022/12/14 11:11:16;;;;;;;;;;;;;;;30.34;21.56;100810.19;5017322;28;1116;-35
2022/12/14 11:13:51;;;;;;;;;;;;;;;30.04;22.03;100811.31;5018131;28;1100;-32
2022/12/14 11:16:21;;;;;;;;;;;;;;;29.76;22.90;100812.22;5016272;28;1959;-34
2022/12/14 11:18:54;;;;;;;;;;;;;;;29.87;22.54;100800.81;5017008;28;1106;-35
2022/12/14 11:21:20;;;;;;;;;;;;;;;30.12;22.40;100804.88;5012571;28;1069;-37
2022/12/14 11:23:46;;;;;;;;;;;;;;;30.31;22.02;100798.69;5004381;28;2376;-33
2022/12/14 11:26:15;;;;;;;;;;;;;;;30.48;21.82;100794.81;5005973;28;1160;-35
2022/12/14 11:28:47;;;;;;;;;;;;;;;30.53;21.75;100792.31;5017747;28;1097;-36
2022/12/14 11:31:18;;;;;;;;;;;;;;;30.66;21.70;100789.59;5017512;28;1159;-35
2022/12/14 11:33:50;;;;;;;;;;;;;;;30.41;21.77;100783.94;5017168;28;1215;-39
2022/12/14 11:36:25;;;;;;;;;;;;;;;29.89;22.51;100798.72;5008215;28;1920;-36
2022/12/14 11:38:54;;;;;;;;;;;;;;;30.38;22.02;100801.44;5015188;28;1537;-39
2022/12/14 11:41:20;;;;;;;;;;;;;;;30.71;21.63;100799.88;5016424;28;1180;-38
2022/12/14 11:43:45;;;;;;;;;;;;;;;30.63;21.82;100803.59;5014671;28;1212;-37
2022/12/14 11:46:11;;;;;;;;;;;;;;;30.42;22.08;100789.16;5005041;28;1105;-39
2022/12/14 11:48:38;;;;;;;;;;;;;;;30.41;22.08;100794.78;5005539;28;1150;-37
2022/12/14 11:51:10;;;;;;;;;;;;;;;30.42;21.89;100793.72;5002235;28;1168;-38
2022/12/14 11:53:35;;;;;;;;;;;;;;;30.70;21.50;100789.22;5000983;28;2301;-37
2022/12/14 11:56:01;;;;;;;;;;;;;;;30.28;22.16;100795.59;5017255;28;1906;-39
2022/12/14 11:58:33;;;;;;;;;;;;;;;30.30;22.31;100797.03;5014100;28;1224;-37
2022/12/14 12:00:59;;;;;;;;;;;;;;;30.25;22.44;100777.81;5009579;28;856;-36
2022/12/14 12:03:30;;;;;;;;;;;;;;;30.32;22.47;100780.56;5014944;28;1168;-34
2022/12/14 12:05:59;;;;;;;;;;;;;;;30.38;22.34;100782.44;5017385;28;1171;-36
2022/12/14 12:08:28;;;;;;;;;;;;;;;30.42;22.02;100778.28;5015446;28;1134;-37
2022/12/14 12:10:55;;;;;;;;;;;;;;;30.38;21.96;100777.00;5001595;28;1136;-35
2022/12/14 12:13:22;;;;;;;;;;;;;;;30.16;22.34;100781.72;5004603;28;881;-36
2022/12/14 12:15:58;;;;;;;;;;;;;;;30.62;21.86;100779.34;5014812;28;1965;-33
2022/12/14 12:18:30;;;;;;;;;;;;;;;30.13;21.56;100774.00;5015511;28;1782;-36
2022/12/14 12:20:56;;;;;;;;;;;;;;;29.77;22.80;100770.50;5015486;28;1089;-34
2022/12/14 12:23:23;;;;;;;;;;;;;;;29.69;22.98;100764.22;5016715;28;1073;-34
2022/12/14 12:25:49;;;;;;;;;;;;;;;29.92;22.78;100754.09;5014819;28;2499;-38
2022/12/14 12:28:19;;;;;;;;;;;;;;;30.15;22.22;100752.91;5009758;28;878;-37
2022/12/14 12:30:46;;;;;;;;;;;;;;;30.52;21.73;100756.19;5008284;28;1106;-32
2022/12/14 12:33:24;;;;;;;;;;;;;;;30.53;21.80;100755.13;5014887;28;1129;-35
2022/12/14 12:35:51;;;;;;;;;;;;;;;30.66;22.04;100767.88;5011859;28;1969;-39
2022/12/14 12:38:46;;;;;;;;;;;;;;;30.67;21.87;100764.13;5002158;28;1069;-40
2022/12/14 12:41:18;;;;;;;;;;;;;;;30.53;22.32;100768.69;5006804;28;1223;-37
2022/12/14 12:43:45;;;;;;;;;;;;;;;30.20;22.83;100780.31;5016331;28;1159;-38
2022/12/14 12:46:15;;;;;;;;;;;;;;;30.38;22.59;100774.31;5014573;28;1160;-39
2022/12/14 12:48:45;;;;;;;;;;;;;;;30.49;22.26;100775.59;5001515;28;883;-39
2022/12/14 12:51:21;;;;;;;;;;;;;;;30.55;22.25;100779.34;5014706;28;1132;-36
2022/12/14 12:53:51;;;;;;;;;;;;;;;30.45;22.41;100771.59;5000976;28;2391;-35
2022/12/14 12:56:21;;;;;;;;;;;;;;;30.47;22.52;100779.53;5014816;28;1902;-37
2022/12/14 12:58:46;;;;;;;;;;;;;;;30.71;22.20;100769.16;5014696;28;1092;-35
2022/12/14 13:01:14;;;;;;;;;;;;;;;30.37;22.62;100775.34;5006890;28;1171;-36
2022/12/14 13:03:42;;;;;;;;;;;;;;;30.43;22.38;100768.25;5015991;28;1143;-38
2022/12/14 13:06:20;;;;;;;;;;;;;;;30.40;22.40;100766.78;5015521;28;1101;-36